Date,TemperatureHighF,TemperatureAvgF,TemperatureLowF,DewpointHighF,DewpointAvgF,DewpointLowF,HumidityHigh,HumidityAvg,HumidityLow,PressureMaxIn,PressureMinIn,WindSpeedMaxMPH,WindSpeedAvgMPH,GustSpeedMaxMPH,PrecipitationSumIn
2012-1-1,72.3,62.0,54.2,62.5,57.0,52.2,95,84,61,30.22,30.06,1,0,4,0.00
2012-1-2,63.5,55.4,44.6,61.1,36.4,22.9,92,52,28,30.16,30.03,4,2,10,0.00
2012-1-3,46.5,39.5,34.1,22.5,13.5,9.7,42,35,27,30.35,30.09,6,2,15,0.00
2012-1-4,53.9,39.3,28.1,28.2,18.3,10.9,64,45,20,30.40,30.25,2,0,5,0.00
2012-1-5,67.4,50.7,37.5,47.7,40.1,27.8,89,69,45,30.26,30.08,3,0,6,0.00
2012-1-6,70.6,54.7,42.9,53.8,46.3,40.2,95,76,40,30.18,30.05,1,0,5,0.00
2012-1-7,71.3,57.3,49.8,60.1,52.1,46.4,95,84,51,30.15,30.05,1,0,5,0.01
2012-1-8,75.6,59.2,47.1,56.9,51.8,45.2,95,79,44,30.20,30.12,3,0,5,0.01
2012-1-9,74.7,61.0,50.8,61.4,54.5,48.8,95,81,50,30.20,30.06,2,0,5,0.00
2012-1-11,58.9,58.8,58.6,52.8,52.6,52.4,81,80,79,29.75,29.75,1,0,2,0.01
2012-1-12,73.0,62.7,51.6,58.2,54.5,49.1,93,76,52,29.85,29.74,2,1,10,0.00
2012-1-13,63.9,50.2,42.2,54.3,26.6,19.3,72,41,24,30.17,29.83,5,2,11,0.00
2012-1-14,56.5,45.6,36.3,33.1,23.7,17.4,71,44,26,30.33,30.18,5,1,9,0.00
2012-1-15,43.9,43.5,42.5,30.9,30.6,30.3,62,60,59,30.27,30.27,0,0,9,0.00
2012-1-22,65.8,64.1,62.7,61.7,61.1,60.6,93,90,86,30.13,30.08,3,1,7,0.00
2012-1-23,79.4,65.8,61.0,66.2,60.9,57.0,96,86,47,30.12,29.98,2,0,7,0.00
2012-1-24,81.4,67.3,59.8,63.2,60.2,57.5,94,80,45,30.14,30.04,2,0,7,0.00
2012-1-25,74.6,65.6,59.3,67.2,61.5,57.6,96,87,69,30.17,30.06,4,1,7,0.01
2012-1-26,81.1,69.2,60.1,68.1,62.4,58.4,96,81,50,30.06,29.85,4,1,7,0.01
2012-1-27,72.7,67.3,54.2,64.5,57.4,46.6,92,72,45,30.01,29.76,4,1,12,0.05
2012-1-28,71.3,56.5,46.5,48.5,45.1,38.1,94,70,30,30.17,30.00,4,0,10,0.00
2012-1-29,63.7,53.2,46.2,49.0,44.7,40.5,92,74,53,30.32,30.15,4,1,7,0.00
2012-1-30,63.1,51.4,40.8,44.0,38.5,28.5,94,66,28,30.40,30.29,4,1,9,0.00
2012-1-31,71.3,55.7,45.1,55.1,48.9,40.9,94,80,48,30.35,30.25,4,1,11,0.00
2012-2-1,78.1,65.0,55.7,60.2,56.6,53.7,95,76,45,30.25,30.10,2,0,11,0.00
2012-2-2,77.9,66.6,58.7,62.1,59.1,55.8,93,78,50,30.16,30.05,3,0,6,0.02
2012-2-3,72.5,63.8,56.6,61.5,57.6,54.1,95,82,59,30.24,30.14,6,2,14,0.00
2012-2-4,75.8,65.7,57.2,63.1,59.1,55.5,95,80,58,30.21,30.05,5,1,12,0.00
2012-2-5,79.6,68.7,60.1,66.9,61.5,58.2,95,79,55,30.05,29.93,1,0,3,0.01
2012-2-6,67.4,62.9,58.3,62.4,59.2,56.0,96,88,80,30.09,29.99,4,2,7,0.00
2012-2-7,65.5,59.3,55.1,56.1,53.9,51.8,92,83,66,30.09,30.01,4,1,8,0.00
2012-2-8,71.6,58.4,50.2,53.0,48.1,39.3,94,72,32,30.12,29.99,3,1,6,0.00
2012-2-9,68.1,57.1,48.2,53.6,45.9,37.0,88,67,41,30.17,30.08,4,1,10,0.00
2012-2-10,72.8,62.9,55.1,61.8,57.2,52.4,93,82,64,30.11,29.86,3,0,6,0.03
2012-2-11,60.9,54.1,39.2,56.7,39.2,12.2,90,60,31,30.14,29.80,7,2,16,0.03
2012-2-12,49.1,37.6,28.7,23.0,12.3,7.6,62,36,20,30.34,30.15,5,2,11,0.00
2012-2-13,61.5,43.8,29.1,39.1,28.6,16.5,84,58,28,30.27,30.10,4,1,8,0.00
2012-2-14,72.7,57.8,42.1,58.8,49.3,38.0,93,75,50,30.09,29.97,3,0,6,0.01
2012-2-15,71.5,63.2,60.2,65.6,60.4,58.2,95,91,76,30.15,30.02,3,0,6,0.17
2012-2-16,77.2,67.3,59.9,64.2,60.3,57.7,96,80,56,30.14,29.97,2,0,9,0.00
2012-2-17,66.0,66.0,66.0,64.2,64.2,64.2,94,94,94,30.02,30.02,0,0,0,0.00
2012-2-18,68.3,62.0,59.6,61.7,59.4,57.9,95,91,79,29.99,29.80,2,0,6,0.00
2012-2-19,81.6,69.8,61.0,68.2,60.1,50.2,94,74,38,29.84,29.60,4,2,12,0.01
2012-2-20,60.9,52.9,50.4,50.7,43.3,40.9,79,70,61,30.21,29.84,5,2,16,0.00
2012-2-21,60.4,53.4,50.4,54.6,49.3,45.5,92,86,79,30.22,30.06,1,0,12,0.00
2012-2-22,75.4,63.3,52.0,63.6,56.9,49.7,94,81,54,30.06,29.77,2,0,6,0.11
2012-2-23,81.1,72.3,65.5,69.1,65.6,62.8,94,81,58,29.83,29.74,3,1,11,0.01
2012-2-24,83.2,73.5,60.7,68.7,64.2,44.9,90,74,51,29.97,29.77,5,2,11,0.18
2012-2-25,61.8,57.4,52.3,44.9,28.8,18.2,56,34,19,30.26,29.97,5,2,11,0.00
2012-2-26,59.2,54.5,48.8,55.5,45.8,30.4,94,74,44,30.34,30.25,3,1,5,0.18
2012-2-27,73.2,65.4,57.0,68.5,62.6,55.3,96,91,73,30.28,30.20,3,0,6,0.08
2012-2-28,71.1,64.3,62.0,62.6,60.6,58.8,93,88,73,30.29,30.20,3,1,6,0.00
2012-2-29,85.5,71.9,61.5,67.0,62.4,59.5,95,75,45,30.20,30.00,2,0,5,0.00
2012-3-1,79.4,71.5,66.8,64.9,63.4,62.3,89,77,57,30.04,29.91,3,0,7,0.00
2012-3-2,83.8,71.9,65.6,64.4,62.5,60.2,92,74,47,30.00,29.85,3,0,9,0.00
2012-3-3,84.5,74.7,67.9,68.3,65.4,59.8,92,75,49,29.85,29.63,5,2,11,0.00
2012-3-4,73.9,57.1,48.0,66.0,38.7,20.1,95,57,20,30.16,29.58,7,3,16,0.30
2012-3-5,77.2,61.2,46.7,44.5,36.2,30.8,68,42,21,30.34,30.15,5,1,11,0.00
2012-3-6,69.3,63.0,51.9,53.6,47.6,36.2,75,58,43,30.45,30.33,7,3,14,0.00
2012-3-7,73.2,68.1,62.7,58.5,54.0,49.1,83,61,45,30.43,30.29,8,3,14,0.00
2012-3-8,80.1,68.3,58.1,64.2,60.4,56.1,95,78,52,30.29,30.14,5,1,14,0.00
2012-3-9,84.0,71.0,61.3,68.1,62.5,59.0,94,76,48,30.16,30.03,4,0,14,0.00
2012-3-10,66.0,63.3,60.5,60.2,55.3,50.7,86,76,61,30.27,30.11,6,4,14,0.00
2012-3-11,73.0,67.8,62.0,60.9,58.0,54.9,89,72,57,30.33,30.22,8,3,16,0.01
2012-3-12,75.4,69.0,64.7,58.2,56.5,54.6,75,65,53,30.31,30.20,6,2,16,0.00
2012-3-13,80.7,69.0,57.3,62.1,58.5,54.4,93,71,48,30.23,30.13,5,1,16,0.00
2012-3-14,84.5,70.3,61.0,65.2,60.0,57.9,94,72,43,30.21,30.11,5,1,16,0.00
2012-3-15,79.9,69.5,59.2,65.6,61.8,56.9,94,78,52,30.24,30.14,6,1,16,0.00
2012-3-16,85.1,70.5,59.8,68.0,61.1,54.4,95,75,35,30.22,30.09,4,1,16,0.01
2012-3-17,85.9,69.9,61.0,66.9,61.8,58.6,94,78,40,30.20,30.09,2,0,16,0.00
2012-3-19,68.3,68.0,67.8,62.9,62.6,62.3,83,83,83,30.09,30.09,0,0,0,0.01
2012-3-20,79.8,70.9,62.1,66.7,62.2,59.6,94,76,52,30.12,30.03,5,2,12,0.00
2012-3-21,80.1,72.4,64.7,67.9,64.6,62.3,94,78,58,30.14,30.05,6,2,13,0.00
2012-3-22,82.2,72.8,64.8,68.7,64.3,61.9,94,77,51,30.15,30.04,5,1,9,0.00
2012-3-23,89.0,73.6,64.2,69.3,64.7,59.6,94,77,38,30.08,29.91,5,1,8,0.67
2012-3-24,81.4,69.4,65.0,70.5,65.8,63.2,95,89,61,29.97,29.80,2,0,7,0.47
2012-3-25,79.2,71.6,64.3,65.5,56.1,42.7,91,63,28,29.82,29.72,5,2,13,0.01
2012-3-26,79.4,72.4,59.8,58.3,55.4,50.6,83,56,43,29.98,29.87,3,1,6,0.00
2012-3-27,79.6,67.9,57.5,65.5,60.0,55.3,94,78,46,30.16,29.98,4,1,8,0.00
2012-3-28,83.2,70.6,59.9,68.7,61.5,56.3,95,75,41,30.17,30.01,5,1,7,0.01
2012-3-29,85.9,73.2,63.2,64.9,59.9,51.1,92,67,31,30.03,29.88,2,0,5,0.00
2012-3-30,69.8,69.6,69.3,62.1,61.9,61.8,77,76,76,29.95,29.95,0,0,2,0.00
2012-3-31,73.3,68.1,65.0,68.2,64.1,62.3,94,87,74,29.91,29.75,2,0,5,1.08
2012-4-1,88.2,74.8,63.2,67.5,62.0,55.6,95,69,35,29.86,29.76,3,0,5,0.01
2012-4-2,91.6,77.7,66.9,68.0,60.5,51.5,92,61,27,29.85,29.75,3,0,9,0.00
2012-4-3,90.5,77.4,68.1,69.0,65.3,57.3,92,69,33,29.90,29.81,6,1,10,0.00
2012-4-4,89.0,77.4,68.6,66.4,63.9,61.4,85,65,40,29.89,29.71,2,0,7,0.00
2012-4-5,90.1,77.1,68.9,65.7,61.9,55.9,82,62,32,29.75,29.63,3,1,9,0.00
2012-4-6,80.1,68.7,61.0,64.7,59.2,48.3,88,73,40,30.00,29.64,6,2,14,0.00
2012-4-7,71.1,64.8,57.2,50.8,48.2,45.6,72,56,44,30.17,29.99,6,2,12,0.00
2012-4-8,79.0,65.9,52.8,56.0,49.4,38.8,92,60,24,30.17,30.03,4,0,7,0.00
2012-4-9,84.0,69.8,60.9,61.6,55.5,47.8,87,64,29,30.05,29.92,3,0,7,0.00
2012-4-10,84.5,71.1,61.8,62.1,52.3,40.4,88,56,25,30.03,29.89,4,1,9,0.00
2012-4-11,81.4,71.5,62.1,58.3,49.1,37.1,79,48,25,30.01,29.89,3,1,9,0.00
2012-4-12,69.8,64.5,58.1,55.2,50.7,41.6,79,62,44,30.09,29.95,5,2,11,0.00
2012-4-13,75.4,67.9,61.3,61.2,58.1,55.0,87,71,57,30.15,30.03,6,2,15,0.00
2012-4-14,80.7,71.4,62.0,63.1,60.2,57.2,92,69,50,30.21,30.12,6,1,10,0.00
2012-4-15,81.4,72.3,64.2,60.8,58.7,52.7,84,64,38,30.18,30.12,6,1,10,0.00
2012-4-16,85.7,72.2,59.9,63.8,59.5,52.0,90,67,34,30.19,30.10,6,1,9,0.00
2012-4-17,83.8,73.2,62.6,64.5,60.8,55.8,92,67,39,30.15,30.01,4,1,9,0.00
2012-4-18,86.5,75.2,65.8,64.7,61.4,57.0,85,64,37,30.04,29.89,3,1,9,0.00
2012-4-19,79.8,72.5,67.1,69.3,66.3,62.3,93,82,56,29.94,29.83,3,0,9,0.25
2012-4-20,88.4,76.0,68.6,69.0,64.6,53.4,92,71,31,29.87,29.75,4,1,10,0.00
2012-4-21,80.3,72.8,67.9,69.2,65.8,63.0,93,79,58,29.79,29.57,5,1,13,0.17
2012-4-22,77.4,69.1,64.8,65.8,61.0,41.4,94,78,41,29.64,29.39,4,1,10,0.30
2012-4-23,71.1,63.2,55.1,43.0,38.8,34.5,61,41,27,29.84,29.65,5,2,18,0.00
2012-4-24,75.1,62.9,50.1,43.4,35.6,30.5,53,38,24,29.95,29.84,5,1,13,0.00
2012-4-25,84.7,69.6,54.8,54.0,48.9,43.3,75,50,29,30.05,29.92,3,1,9,0.00
2012-4-26,91.4,74.8,60.9,63.3,56.0,51.0,89,56,26,30.07,29.93,4,1,11,0.00
2012-4-27,89.9,74.3,63.5,65.4,61.2,53.0,92,67,29,30.08,29.95,2,0,8,0.00
2012-4-28,91.6,75.5,62.9,68.2,61.8,50.7,92,66,27,30.07,29.97,5,1,8,0.00
2012-4-29,86.3,76.4,68.3,71.2,66.4,57.8,93,74,42,30.08,30.01,4,1,10,0.00
2012-4-30,84.5,75.7,67.3,72.1,67.9,65.0,94,78,57,30.11,30.04,6,2,12,0.00
2012-5-1,85.5,77.2,69.8,71.0,67.4,63.9,94,74,52,30.09,30.01,6,2,9,0.00
2012-5-2,86.5,76.3,67.9,71.3,67.5,64.8,94,76,52,30.08,30.02,7,1,12,0.00
2012-5-3,87.6,76.6,66.6,70.8,66.4,62.9,94,73,46,30.08,30.01,5,1,9,0.00
2012-5-4,90.5,77.7,68.9,70.6,66.2,49.7,92,70,25,30.06,29.94,4,0,10,0.00
2012-5-5,94.0,81.7,71.3,69.6,65.5,57.3,84,61,30,29.96,29.81,2,0,10,0.00
2012-5-6,95.9,79.7,71.3,69.8,66.1,56.0,91,66,27,29.91,29.79,5,1,9,0.26
2012-5-7,84.1,75.7,71.3,72.1,69.2,63.6,94,81,55,29.89,29.83,5,1,9,0.01
2012-5-8,85.9,76.7,68.3,71.8,68.1,63.8,94,76,48,29.88,29.77,3,1,9,0.00
2012-5-9,91.4,79.0,68.6,70.3,66.9,60.8,92,70,41,29.83,29.62,5,0,9,0.18
2012-5-10,79.4,71.7,64.2,66.1,60.5,56.0,91,70,47,29.89,29.72,4,1,10,0.01
2012-5-11,83.0,72.9,60.9,66.4,58.4,51.7,94,64,36,30.09,29.88,6,2,11,0.00
2012-5-12,81.2,74.3,66.6,61.0,58.8,53.3,79,60,43,30.19,30.08,7,2,12,0.00
2012-5-13,82.0,74.5,65.6,66.4,63.8,60.3,90,70,55,30.12,29.99,4,1,9,0.00
2012-5-14,87.6,75.2,66.3,70.8,66.9,63.7,93,77,49,30.01,29.84,3,0,11,1.24
2012-5-15,85.1,73.9,65.5,74.4,68.7,63.1,96,84,56,29.95,29.87,5,0,11,0.17
2012-5-16,79.0,74.3,70.4,71.2,68.5,67.2,92,83,68,29.97,29.86,2,0,3,0.06
2012-5-17,82.8,74.1,67.9,69.9,67.0,61.4,92,80,55,29.90,29.78,4,0,6,0.13
2012-5-18,68.3,66.8,65.3,66.1,65.0,63.5,95,94,92,29.91,29.83,1,0,4,0.00
2012-5-21,76.3,73.2,70.8,65.9,65.4,65.1,83,77,69,29.91,29.85,1,0,6,0.00
2012-5-22,88.0,77.4,68.8,68.3,64.3,57.7,89,66,42,29.91,29.78,2,0,10,0.00
2012-5-23,92.5,79.1,69.4,73.1,66.7,58.0,91,69,32,29.86,29.76,5,1,11,0.00
2012-5-24,87.6,79.7,72.0,72.6,70.0,66.8,92,74,51,29.89,29.83,6,2,12,0.00
2012-5-25,86.7,79.1,72.7,73.6,68.7,61.3,94,73,44,30.00,29.88,5,1,11,0.00
2012-5-26,90.7,79.5,69.6,70.5,66.5,60.1,93,67,37,30.02,29.91,6,1,10,0.00
2012-5-27,83.8,76.2,72.3,71.5,68.7,66.3,92,78,60,29.92,29.42,9,3,16,0.61
2012-5-28,85.1,76.5,72.5,72.4,69.9,68.4,94,81,63,29.83,29.38,5,1,11,1.71
2012-5-29,93.4,80.4,71.6,86.5,77.2,68.7,95,90,76,29.84,29.70,5,1,14,1.21
2012-5-30,100.2,88.6,77.9,87.1,79.2,71.2,96,76,41,29.80,29.72,4,1,9,0.02
2012-5-31,93.4,78.7,72.1,75.7,70.9,67.4,93,79,46,29.84,29.74,5,0,9,0.29
2012-6-1,84.9,76.8,71.6,74.2,70.9,68.3,93,82,66,29.86,29.75,2,0,7,0.25
2012-6-2,90.5,80.7,72.8,72.0,66.1,54.0,90,64,34,29.89,29.77,3,1,11,0.00
2012-6-3,92.1,80.4,68.3,66.3,59.4,52.9,73,51,31,29.99,29.86,2,0,4,0.00
2012-6-4,96.1,83.9,73.0,71.5,65.5,55.4,86,58,27,29.88,29.69,3,1,6,0.00
2012-6-5,93.6,81.6,71.3,74.4,70.7,62.4,93,72,38,29.82,29.66,6,1,11,0.89
2012-6-6,89.9,78.5,70.4,75.5,71.2,68.4,95,80,52,29.88,29.75,3,1,7,1.20
2012-6-7,84.0,75.5,72.8,75.8,72.2,70.1,96,90,68,29.90,29.84,2,0,5,1.30
2012-6-8,78.8,74.6,72.1,71.7,69.4,65.8,95,84,67,29.95,29.86,5,1,10,0.15
2012-6-9,81.4,75.9,72.0,73.5,70.9,67.4,94,85,73,29.99,29.89,5,1,12,3.03
2012-6-10,88.6,77.6,73.5,77.8,74.3,72.0,96,90,68,30.08,29.94,2,0,5,0.39
2012-6-11,95.1,80.4,71.6,78.4,72.7,68.3,94,79,47,30.07,29.98,6,0,10,0.62
2012-6-12,92.3,77.8,72.1,73.9,71.5,67.9,93,82,50,30.05,29.86,4,0,10,0.29
2012-6-13,94.7,83.1,73.9,75.7,72.8,69.0,92,73,44,29.89,29.78,4,0,9,0.00
2012-6-14,85.9,79.9,72.8,75.6,71.9,67.5,94,77,61,29.99,29.83,5,1,9,1.47
2012-6-15,80.5,75.5,69.4,73.1,67.2,53.1,94,77,46,30.04,29.92,6,1,10,0.00
2012-6-16,82.4,77.1,71.1,70.1,66.7,58.7,91,71,45,30.08,29.98,7,2,13,0.00
2012-6-17,82.4,76.4,70.1,68.8,65.7,62.5,90,71,55,30.05,29.94,5,2,10,0.00
2012-6-18,84.0,74.6,66.1,65.7,63.4,61.7,91,70,49,30.02,29.95,4,1,8,0.00
2012-6-19,76.8,76.6,76.3,69.3,69.2,69.0,79,78,77,30.07,30.07,1,1,1,0.00
2012-6-28,100.4,89.9,78.6,78.2,64.8,-99.9,71,52,37,29.98,29.95,2,0,6,0.00
2012-6-29,95.6,84.3,74.2,74.1,70.6,66.8,88,66,41,29.98,29.83,2,0,6,0.00
2012-6-30,95.9,85.6,75.4,77.4,74.3,71.1,90,70,52,29.91,29.81,3,0,10,0.00
2012-7-1,82.8,78.9,76.5,73.7,72.4,71.5,85,81,74,29.91,29.89,0,0,4,0.00
2012-7-7,95.1,86.1,76.8,77.5,73.1,65.1,86,67,38,30.03,29.94,4,0,6,0.01
2012-7-8,97.8,84.9,76.0,76.4,72.8,68.0,90,70,39,30.04,29.91,3,0,9,0.00
2012-7-9,97.5,86.3,77.9,76.5,72.3,66.2,86,65,38,29.98,29.86,4,0,5,0.00
2012-7-10,96.1,82.1,74.6,75.7,73.2,67.2,92,76,41,29.98,29.88,5,0,9,1.67
2012-7-11,91.4,82.7,75.1,73.9,71.7,68.1,91,71,47,30.00,29.92,4,0,9,0.00
2012-7-12,88.4,82.3,75.6,75.2,72.8,69.8,90,74,59,30.00,29.92,5,1,11,0.00
2012-7-13,90.1,83.3,77.2,75.8,73.3,69.8,89,73,55,30.04,29.95,5,1,9,0.00
2012-7-14,88.6,83.2,77.4,74.8,72.7,70.2,89,71,57,30.09,30.00,6,2,10,0.00
2012-7-15,88.4,82.0,76.0,75.6,72.6,70.3,90,74,57,30.09,29.98,4,1,13,0.12
2012-7-16,85.5,80.1,76.0,76.8,73.4,71.4,92,80,64,30.02,29.89,2,0,13,0.18
2012-7-17,90.7,79.3,73.9,73.3,72.0,70.5,91,79,56,29.96,29.88,3,0,13,0.09
2012-7-18,90.5,79.1,73.9,76.5,73.6,70.8,92,84,57,30.03,29.92,2,0,13,0.14
2012-7-19,88.6,79.7,77.4,77.1,75.0,71.7,92,86,63,30.09,30.01,3,0,13,0.17
2012-7-20,94.7,84.4,76.3,78.2,74.1,70.5,93,73,48,30.06,29.97,3,0,13,0.00
2012-7-21,95.6,83.8,74.7,77.0,73.6,69.6,91,73,46,30.06,29.98,4,0,13,0.00
2012-7-22,91.2,83.8,77.0,77.7,73.7,68.3,92,73,48,30.14,30.03,5,1,14,0.00
2012-7-23,92.1,82.3,75.3,75.7,72.8,69.5,90,74,49,30.13,30.04,4,1,11,0.00
2012-7-24,92.3,83.4,75.4,76.7,72.7,70.8,88,71,52,30.07,29.90,2,0,8,0.05
2012-7-25,96.3,85.5,77.4,77.7,74.2,71.4,89,70,47,29.95,29.86,2,0,6,0.00
2012-7-26,97.5,86.3,79.0,77.2,75.0,71.6,89,71,47,29.94,29.86,2,0,7,0.00
2012-7-27,96.8,85.9,77.4,76.4,73.9,70.8,89,69,44,29.99,29.89,2,0,6,0.00
2012-7-28,94.3,83.3,77.4,78.9,75.3,71.7,90,78,51,30.02,29.92,2,0,6,0.15
2012-7-29,95.1,82.7,77.4,78.3,75.7,72.7,92,81,49,29.98,29.88,3,0,6,1.01
2012-7-30,91.4,80.4,75.1,79.2,75.0,69.7,92,84,62,29.96,29.88,2,0,6,0.32
2012-7-31,92.9,80.9,74.6,77.9,74.0,71.1,92,80,52,29.95,29.86,3,0,9,0.17
2012-8-1,92.3,81.1,76.5,78.4,74.5,72.5,92,81,55,29.92,29.83,2,0,6,0.49
2012-8-2,96.3,83.3,74.7,78.9,75.1,70.9,93,79,45,29.92,29.82,2,0,7,0.21
2012-8-3,92.1,82.2,73.3,77.9,72.9,69.9,95,75,52,29.99,29.88,4,0,8,0.00
2012-8-4,86.3,79.5,75.4,75.8,73.5,70.0,94,83,64,30.04,29.95,7,2,13,0.68
2012-8-5,96.8,86.1,77.0,89.4,82.7,74.8,97,90,70,30.06,29.95,14,1,14,0.31
2012-8-6,98.0,88.7,79.9,87.9,83.0,75.0,96,84,66,30.06,29.93,10,0,10,0.01
2012-8-7,92.3,80.9,74.9,75.6,73.9,70.9,92,80,54,29.98,29.92,3,0,9,0.31
2012-8-8,90.7,79.3,74.9,78.0,74.6,72.7,95,86,59,29.99,29.92,3,0,11,0.51
2012-8-9,93.6,81.4,75.3,78.2,74.1,70.3,92,79,48,29.96,29.85,3,0,9,0.10
2012-8-10,94.7,83.5,76.8,77.1,73.1,69.1,89,73,45,29.91,29.83,3,0,11,0.00
2012-8-11,94.9,81.7,75.6,76.8,73.3,70.8,89,77,48,29.93,29.83,4,0,10,0.10
2012-8-12,92.3,80.9,76.5,76.8,74.0,72.2,90,80,54,29.97,29.89,4,0,7,0.89
2012-8-13,92.9,83.8,76.1,76.7,73.4,66.7,92,73,51,30.00,29.90,2,0,7,0.00
2012-8-14,92.9,82.3,73.9,76.0,72.5,68.9,88,73,51,29.98,29.87,2,0,7,0.00
2012-8-15,92.5,82.4,77.0,77.7,74.4,71.7,90,78,55,29.97,29.89,3,0,7,0.23
2012-8-16,92.9,82.8,73.7,77.4,74.0,69.2,92,76,55,30.01,29.89,5,0,9,0.01
2012-8-17,90.1,78.3,73.2,77.5,73.3,69.2,93,85,63,29.95,29.86,4,0,7,2.12
2012-8-18,93.2,83.5,76.0,75.5,73.6,70.1,94,74,48,29.89,29.78,2,0,5,0.00
2012-8-19,91.4,79.3,75.6,77.6,74.4,72.3,93,85,60,29.89,29.83,3,0,9,0.62
2012-8-20,89.7,77.8,72.8,76.5,73.6,71.0,94,88,58,29.95,29.80,3,0,4,2.36
2012-8-21,87.4,76.9,72.0,81.0,74.9,70.3,96,94,80,30.00,29.88,1,0,4,0.39
2012-8-22,90.7,81.9,76.7,82.4,78.4,75.3,97,90,69,30.01,29.94,1,0,3,0.30
2012-8-23,92.9,84.0,78.8,82.1,78.4,72.9,97,84,65,30.04,29.96,3,0,10,0.00
2012-8-24,90.1,80.2,72.7,75.9,72.1,67.4,96,78,56,30.03,29.95,3,1,7,0.00
2012-8-25,78.1,73.6,72.1,73.5,71.1,70.2,95,92,83,30.01,29.96,1,0,1,0.00
2012-8-26,84.0,80.6,78.3,76.1,73.0,70.0,91,78,66,30.01,29.91,6,3,13,0.06
2012-8-27,80.9,78.2,76.0,76.8,75.1,73.1,94,90,84,29.92,29.81,5,2,13,0.74
2012-8-28,93.4,81.5,75.1,76.9,74.9,71.6,94,82,54,29.95,29.83,6,1,13,0.70
2012-8-29,90.1,79.4,74.0,77.7,74.4,72.0,95,86,61,29.95,29.86,1,0,13,0.91
2012-8-30,91.2,80.4,75.3,79.3,75.8,70.7,96,87,59,30.07,29.91,3,0,13,1.11
2012-8-31,88.2,81.5,76.7,78.4,75.7,72.6,96,83,62,30.15,30.06,4,1,13,0.01
2012-9-1,90.3,82.3,75.8,78.7,73.9,70.4,95,78,55,30.12,30.01,3,0,13,0.00
2012-9-2,90.7,81.3,75.6,77.4,73.2,68.9,94,78,53,30.03,29.91,4,0,13,0.00
2012-9-3,94.5,81.6,72.7,74.7,71.3,68.8,92,73,46,30.00,29.89,4,0,13,0.00
2012-9-4,95.6,81.9,74.4,75.6,71.7,67.4,91,73,41,29.96,29.85,4,0,13,0.01
2012-9-5,94.7,82.4,73.2,77.0,72.9,66.6,93,75,41,29.92,29.83,3,0,13,0.00
2012-9-6,92.3,82.5,74.7,75.3,72.5,69.6,91,73,50,29.95,29.86,2,0,13,0.00
2012-9-7,92.7,81.8,76.1,77.0,74.0,71.6,92,79,51,29.92,29.83,2,0,13,0.03
2012-9-8,92.9,82.3,76.1,78.2,74.0,71.7,92,77,51,29.87,29.75,3,0,9,0.12
2012-9-9,89.7,81.8,77.2,76.8,73.8,69.1,93,78,57,29.88,29.73,2,0,9,0.11
2012-9-10,84.1,78.6,73.5,71.8,67.4,62.1,89,70,49,30.01,29.86,5,1,9,0.00
2012-9-11,84.7,78.6,72.1,67.9,64.2,56.5,79,63,40,30.12,30.00,5,2,10,0.00
2012-9-12,84.5,78.4,74.4,72.5,69.3,65.7,91,75,54,30.14,30.06,7,2,14,0.05
2012-9-13,81.8,76.3,72.7,73.4,71.0,68.9,92,84,72,30.12,30.03,4,0,6,0.74
2012-9-14,83.4,77.4,73.2,75.6,72.0,69.0,93,84,63,30.07,30.00,6,1,11,0.26
2012-9-15,83.0,77.0,70.8,75.3,72.1,68.7,95,86,71,30.06,29.99,4,1,10,0.23
2012-9-16,84.5,77.8,72.0,75.7,72.0,70.0,95,83,65,30.03,29.94,4,0,7,0.15
2012-9-17,88.6,79.1,71.8,75.1,71.6,69.1,95,79,54,29.98,29.83,3,1,9,0.28
2012-9-18,79.2,76.4,74.0,75.7,72.8,70.7,93,89,79,29.88,29.76,3,0,9,0.29
2012-9-19,87.6,79.4,74.0,74.0,72.0,69.1,92,79,55,29.99,29.82,3,0,9,0.00
2012-9-20,84.7,76.5,73.7,73.3,71.7,66.6,93,86,64,29.99,29.93,5,1,9,0.57
2012-9-21,82.8,76.9,72.3,75.9,72.3,70.8,96,86,69,29.97,29.90,3,0,9,0.12
2012-9-22,86.3,78.2,73.2,75.8,71.6,68.9,95,81,60,29.98,29.91,4,0,9,0.00
2012-9-23,89.7,79.0,71.5,74.6,66.0,52.4,95,68,38,30.03,29.94,2,0,9,0.01
2012-9-24,84.3,73.5,60.9,62.5,56.4,47.5,89,59,28,30.06,29.98,4,1,9,0.00
2012-9-28,86.5,80.1,72.5,75.3,71.9,69.8,94,77,60,30.02,29.92,4,1,11,0.00
2012-9-29,87.8,78.1,70.1,74.5,69.1,61.1,95,76,42,29.95,29.80,3,0,5,0.00
2012-9-30,88.2,79.2,73.9,76.6,72.5,69.3,93,81,56,29.85,29.71,4,0,9,0.13
2012-10-1,93.4,80.0,71.8,81.5,73.9,70.3,96,83,52,29.76,29.65,3,0,8,0.09
2012-10-2,89.3,80.3,75.3,75.7,73.6,71.0,94,81,59,29.95,29.70,2,0,6,0.01
2012-10-3,84.5,77.6,75.3,75.2,72.9,69.9,93,86,69,30.11,29.94,1,0,3,0.04
2012-10-4,90.1,79.2,73.0,82.6,75.4,70.7,96,89,61,30.14,30.06,2,0,9,0.84
2012-10-5,90.1,82.4,78.6,83.1,78.7,77.1,97,89,69,30.09,29.93,3,0,7,0.01
2012-10-6,90.1,80.7,74.9,80.4,75.7,71.9,96,86,67,29.96,29.83,4,0,7,0.00
2012-10-7,89.3,78.9,71.8,75.2,71.8,67.2,96,80,49,29.94,29.86,4,0,7,0.01
2012-10-8,87.4,77.3,72.0,75.9,72.7,69.3,95,87,61,29.98,29.88,1,0,4,1.05
2012-10-9,71.5,66.4,63.4,69.1,63.6,61.0,94,91,86,30.05,29.96,2,1,7,0.00
2012-10-10,81.1,68.1,59.3,67.9,62.4,57.9,96,84,55,30.09,29.98,2,0,5,0.00
2012-10-11,79.4,70.0,63.1,66.3,61.9,57.4,96,78,49,30.16,30.06,3,0,6,0.01
2012-10-12,81.1,71.5,63.4,67.5,62.5,59.3,95,76,50,30.17,30.08,3,1,6,0.00
2012-10-13,81.6,73.6,65.5,69.7,65.2,62.8,92,76,54,30.19,30.10,5,1,9,0.00
2012-10-14,82.6,75.6,67.9,72.5,68.8,65.5,94,80,64,30.12,29.96,6,1,12,0.08
2012-10-15,85.3,75.3,68.3,73.8,68.9,66.1,95,82,55,29.95,29.75,1,0,5,0.00
2012-10-16,77.6,71.9,64.7,66.9,59.0,53.9,82,64,50,29.86,29.79,3,1,10,0.00
2012-12-19,52.8,7.0,52.3,50.2,-79.9,-99.9,92,12,90,30.05,-32.77,1,-866,1,0.01
2012-12-21,46.0,46.0,46.0,35.3,35.3,35.3,66,66,66,30.03,30.03,6,6,6,0.00